Time;durP1;ratioP1;P1;durP2;ratioP2;P2;SDS_P1;SDS_P2;PMS_P1;PMS_P2;Temp;Humidity;BMP_temperature;BMP_pressure;BME280_temperature;BME280_humidity;BME280_pressure;Samples;Min_cycle;Max_cycle;Signal;HPM_P1;HPM_P2
2022/06/21 00:00:28;;;;;;;4.40;3.97;;;12.90;99.90;;;;;;5029537;28;20468;-36
2022/06/21 00:02:59;;;;;;;4.07;3.67;;;12.80;99.90;;;;;;5027371;28;21040;-36
2022/06/21 00:05:29;;;;;;;3.73;3.33;;;12.80;99.90;;;;;;5029508;28;20425;-36
2022/06/21 00:07:56;;;;;;;4.03;3.40;;;13.00;99.90;;;;;;5027425;28;20495;-36
2022/06/21 00:10:22;;;;;;;3.47;3.17;;;12.90;99.90;;;;;;5027997;28;20413;-36
2022/06/21 00:12:48;;;;;;;3.97;3.60;;;12.90;99.90;;;;;;5029406;28;20431;-36
2022/06/21 00:15:14;;;;;;;7.10;3.90;;;12.90;99.90;;;;;;5029202;28;20846;-36
2022/06/21 00:17:43;;;;;;;4.23;3.83;;;12.90;99.90;;;;;;5027277;28;20190;-36
2022/06/21 00:20:18;;;;;;;4.03;3.60;;;12.90;99.90;;;;;;5029249;28;20483;-36
2022/06/21 00:22:44;;;;;;;5.20;4.00;;;12.80;99.90;;;;;;5029261;28;20970;-36
2022/06/21 00:25:23;;;;;;;3.90;3.60;;;12.80;99.90;;;;;;5029225;28;20417;-36
2022/06/21 00:27:49;;;;;;;4.87;3.33;;;12.80;99.90;;;;;;5028481;28;21073;-36
2022/06/21 00:30:16;;;;;;;4.63;3.80;;;12.80;99.90;;;;;;5029226;28;20422;-36
2022/06/21 00:32:44;;;;;;;5.23;3.90;;;12.80;99.90;;;;;;5029130;28;20439;-36
2022/06/21 00:35:13;;;;;;;3.10;2.90;;;12.80;99.90;;;;;;5029206;28;20524;-36
2022/06/21 00:37:40;;;;;;;4.50;3.63;;;12.90;99.90;;;;;;5028584;28;20513;-36
2022/06/21 00:40:27;;;;;;;4.67;3.70;;;12.90;99.90;;;;;;5031391;28;20515;-36
2022/06/21 00:43:06;;;;;;;5.30;3.67;;;12.90;99.90;;;;;;5016144;28;20457;-36
2022/06/21 00:45:39;;;;;;;5.83;4.30;;;12.90;99.90;;;;;;5032534;28;20417;-36
2022/06/21 00:48:37;;;;;;;3.77;3.47;;;12.90;99.90;;;;;;5023564;28;20520;-36
2022/06/21 00:51:23;;;;;;;4.63;4.13;;;12.90;99.90;;;;;;5021780;28;20473;-36
2022/06/21 00:54:23;;;;;;;4.50;3.97;;;13.00;99.90;;;;;;5032548;28;20508;-36
2022/06/21 00:57:17;;;;;;;4.30;3.90;;;12.90;99.90;;;;;;5002930;28;20512;-36
2022/06/21 00:59:46;;;;;;;4.73;4.33;;;12.90;99.90;;;;;;5032150;28;20445;-36
2022/06/21 01:02:22;;;;;;;3.97;3.67;;;12.80;99.90;;;;;;5032007;28;20464;-36
2022/06/21 01:04:52;;;;;;;6.60;4.00;;;12.70;99.90;;;;;;5032381;28;20452;-36
2022/06/21 01:07:18;;;;;;;7.10;4.00;;;12.70;99.90;;;;;;5031235;28;21012;-36
2022/06/21 01:09:57;;;;;;;4.10;3.70;;;12.70;99.90;;;;;;5032159;28;20421;-36
2022/06/21 01:12:32;;;;;;;4.03;3.67;;;12.70;99.90;;;;;;5031934;28;20451;-36
2022/06/21 01:15:03;;;;;;;4.17;3.77;;;12.50;99.90;;;;;;5032136;28;20793;-36
2022/06/21 01:17:30;;;;;;;4.13;3.73;;;12.50;99.90;;;;;;5029979;28;20524;-36
2022/06/21 01:20:01;;;;;;;3.90;3.50;;;12.40;99.90;;;;;;5030658;28;20429;-36
2022/06/21 01:23:04;;;;;;;4.40;4.00;;;12.40;99.90;;;;;;5031583;28;20465;-36
2022/06/21 01:25:51;;;;;;;4.20;3.80;;;12.40;99.90;;;;;;5031863;28;20467;-36
2022/06/21 01:28:18;;;;;;;5.20;3.97;;;12.20;99.90;;;;;;5030921;28;20421;-36
2022/06/21 01:30:46;;;;;;;5.90;4.10;;;12.30;99.90;;;;;;5031779;28;20994;-36
2022/06/21 01:33:16;;;;;;;4.17;3.80;;;12.30;99.90;;;;;;5031684;28;20455;-35
2022/06/21 01:35:54;;;;;;;4.87;4.40;;;12.30;99.90;;;;;;5031802;28;20430;-36
2022/06/21 01:38:28;;;;;;;4.77;4.37;;;12.30;99.90;;;;;;5029992;28;20797;-36
2022/06/21 01:40:59;;;;;;;5.33;4.83;;;12.30;99.90;;;;;;5031320;28;20435;-36
2022/06/21 01:43:28;;;;;;;4.47;3.73;;;12.20;99.90;;;;;;5031406;28;20460;-36
2022/06/21 01:46:00;;;;;;;4.47;3.60;;;12.30;99.90;;;;;;5031586;28;20483;-36
2022/06/21 01:48:31;;;;;;;5.23;3.83;;;12.30;99.90;;;;;;5030387;28;20422;-36
2022/06/21 01:51:02;;;;;;;4.20;3.80;;;12.40;99.90;;;;;;5042380;28;20441;-36
2022/06/21 01:53:28;;;;;;;6.70;3.90;;;12.30;99.90;;;;;;5031227;28;20451;-36
2022/06/21 01:55:58;;;;;;;4.60;3.57;;;12.20;99.90;;;;;;5031303;28;20442;-36
2022/06/21 01:58:32;;;;;;;5.00;4.33;;;12.10;99.90;;;;;;5030647;28;20463;-36
2022/06/21 02:01:08;;;;;;;4.07;3.67;;;11.90;99.90;;;;;;5031054;28;20452;-36
2022/06/21 02:03:36;;;;;;;4.07;3.70;;;11.90;99.90;;;;;;5030677;28;20504;-36
2022/06/21 02:06:14;;;;;;;6.70;3.77;;;11.90;99.90;;;;;;5030954;28;20421;-36
2022/06/21 02:08:49;;;;;;;4.20;3.80;;;11.80;99.90;;;;;;5030421;28;20567;-36
2022/06/21 02:11:41;;;;;;;5.07;4.10;;;11.70;99.90;;;;;;5030804;28;20507;-36
2022/06/21 02:14:29;;;;;;;4.60;4.17;;;11.70;99.90;;;;;;5029616;28;20409;-36
2022/06/21 02:17:16;;;;;;;4.83;4.27;;;11.70;99.90;;;;;;5030140;28;20445;-36
2022/06/21 02:20:01;;;;;;;4.20;3.70;;;11.70;99.90;;;;;;5030848;28;20968;-36
2022/06/21 02:22:30;;;;;;;7.10;4.40;;;11.80;99.90;;;;;;5030312;28;20449;-35
2022/06/21 02:24:56;;;;;;;6.63;4.77;;;11.70;99.90;;;;;;5029451;28;20421;-36
2022/06/21 02:27:25;;;;;;;4.80;3.73;;;11.70;99.90;;;;;;5030136;28;20450;-36
2022/06/21 02:29:53;;;;;;;4.97;4.40;;;11.60;99.90;;;;;;5030779;28;20417;-36
2022/06/21 02:32:25;;;;;;;5.73;4.67;;;11.60;99.90;;;;;;5030818;28;20460;-36
2022/06/21 02:34:55;;;;;;;5.10;4.30;;;11.60;99.90;;;;;;5030558;28;20440;-36
2022/06/21 02:37:23;;;;;;;5.20;4.00;;;11.50;99.90;;;;;;5029077;28;20425;-36
2022/06/21 02:39:49;;;;;;;6.50;4.30;;;11.50;99.90;;;;;;5030689;28;20420;-36
2022/06/21 02:42:28;;;;;;;5.43;4.00;;;11.50;99.90;;;;;;5030055;28;20475;-36
2022/06/21 02:45:01;;;;;;;4.90;4.33;;;11.60;99.90;;;;;;5030566;28;20444;-36
2022/06/21 02:47:36;;;;;;;8.20;4.17;;;11.60;99.90;;;;;;5029294;28;20575;-35
2022/06/21 02:50:24;;;;;;;5.27;3.80;;;11.50;99.90;;;;;;5043242;28;20416;-36
2022/06/21 02:52:53;;;;;;;5.17;4.67;;;11.40;99.90;;;;;;5028285;28;20436;-36
2022/06/21 02:55:41;;;;;;;4.23;3.93;;;11.30;99.90;;;;;;5028952;28;20924;-36
2022/06/21 02:58:16;;;;;;;4.30;3.90;;;11.30;99.90;;;;;;5029333;28;20478;-36
2022/06/21 03:00:42;;;;;;;8.20;4.70;;;11.30;99.90;;;;;;5029273;28;20518;-36
2022/06/21 03:03:22;;;;;;;7.90;4.90;;;11.30;99.90;;;;;;5029880;28;20523;-36
2022/06/21 03:05:50;;;;;;;6.70;4.50;;;11.30;99.90;;;;;;5030235;28;20417;-36
2022/06/21 03:08:17;;;;;;;6.40;4.53;;;11.20;99.90;;;;;;5029130;28;20417;-36
2022/06/21 03:10:47;;;;;;;5.80;4.97;;;11.30;99.90;;;;;;5030004;28;20431;-36
2022/06/21 03:13:26;;;;;;;9.73;5.43;;;11.30;99.90;;;;;;5030051;28;20417;-36
2022/06/21 03:16:07;;;;;;;5.87;5.03;;;11.30;99.90;;;;;;5029892;28;20492;-36
2022/06/21 03:18:45;;;;;;;6.50;5.10;;;11.20;99.90;;;;;;5029147;28;20429;-36
2022/06/21 03:21:14;;;;;;;7.00;4.90;;;11.10;99.90;;;;;;5029805;28;20878;-36
2022/06/21 03:23:41;;;;;;;5.10;4.60;;;11.10;99.90;;;;;;5029624;28;20812;-36
2022/06/21 03:26:10;;;;;;;10.40;6.23;;;11.00;99.90;;;;;;5029665;28;20456;-38
2022/06/21 03:28:42;;;;;;;7.87;5.57;;;11.00;99.90;;;;;;5029232;28;20417;-36
2022/06/21 03:31:10;;;;;;;6.07;5.37;;;11.10;99.90;;;;;;5029400;28;20416;-36
2022/06/21 03:33:41;;;;;;;5.40;4.90;;;11.10;99.90;;;;;;5029812;28;20421;-35
2022/06/21 03:36:09;;;;;;;9.70;5.30;;;11.10;99.90;;;;;;5029644;28;20479;-35
2022/06/21 03:38:38;;;;;;;6.47;5.63;;;11.20;99.90;;;;;;5028231;28;20483;-37
2022/06/21 03:43:57;;;;;;;6.23;5.63;;;11.40;99.90;;;;;;5029360;28;20797;-36
2022/06/21 03:46:36;;;;;;;6.83;6.07;;;11.40;99.90;;;;;;5029643;28;20846;-36
2022/06/21 03:49:28;;;;;;;8.47;6.10;;;11.50;99.90;;;;;;5034681;28;20806;-36
2022/06/21 03:51:55;;;;;;;6.30;5.40;;;11.60;99.90;;;;;;5033507;28;20520;-35
2022/06/21 03:54:25;;;;;;;6.53;5.80;;;11.60;99.90;;;;;;5029660;28;20413;-36
2022/06/21 03:57:11;;;;;;;10.00;6.53;;;11.50;99.90;;;;;;5027485;28;20943;-38
2022/06/21 03:59:49;;;;;;;9.73;6.50;;;11.50;99.90;;;;;;5029171;28;20437;-38
2022/06/21 04:02:29;;;;;;;6.57;5.87;;;11.40;99.90;;;;;;5027950;28;20809;-38
2022/06/21 04:05:09;;;;;;;7.63;6.27;;;11.50;99.90;;;;;;5029514;28;20413;-35
2022/06/21 04:07:53;;;;;;;7.70;5.63;;;11.50;99.90;;;;;;5028692;28;20520;-36
2022/06/21 04:10:28;;;;;;;7.20;6.30;;;11.60;99.90;;;;;;5029528;28;20491;-36
2022/06/21 04:13:16;;;;;;;6.63;6.03;;;11.70;99.90;;;;;;5032107;28;20831;-37
2022/06/21 04:15:59;;;;;;;8.67;6.67;;;11.80;99.90;;;;;;5033262;28;20490;-36
2022/06/21 04:18:59;;;;;;;8.80;5.40;;;11.90;99.90;;;;;;5032424;28;20417;-38
2022/06/21 04:21:42;;;;;;;7.13;5.80;;;11.90;99.90;;;;;;5031755;28;20563;-37
2022/06/21 04:24:43;;;;;;;9.30;6.00;;;11.90;99.90;;;;;;5032892;28;20615;-38
2022/06/21 04:27:52;;;;;;;7.33;5.87;;;11.90;99.90;;;;;;5032506;28;20804;-38
2022/06/21 04:30:43;;;;;;;7.90;5.37;;;11.90;99.90;;;;;;5027129;28;20428;-38
2022/06/21 04:33:26;;;;;;;7.83;6.47;;;12.00;99.90;;;;;;5026978;28;20857;-38
2022/06/21 04:36:08;;;;;;;8.03;5.27;;;11.90;99.90;;;;;;5032695;28;20412;-38
2022/06/21 04:39:09;;;;;;;6.60;5.90;;;11.90;99.90;;;;;;5030066;28;20433;-37
2022/06/21 04:41:43;;;;;;;8.23;6.23;;;11.90;99.90;;;;;;5027252;28;21387;-37
2022/06/21 04:44:25;;;;;;;7.80;6.20;;;11.90;99.90;;;;;;5030130;28;20471;-38
2022/06/21 04:47:12;;;;;;;7.33;5.90;;;12.00;99.90;;;;;;5031937;28;20428;-38
2022/06/21 04:49:58;;;;;;;7.80;6.27;;;12.10;99.90;;;;;;5042791;28;20435;-35
2022/06/21 04:52:39;;;;;;;9.37;5.60;;;12.20;99.90;;;;;;5030811;28;20455;-38
2022/06/21 04:55:08;;;;;;;6.47;5.70;;;12.40;99.90;;;;;;5031112;28;20520;-38
2022/06/21 04:57:34;;;;;;;8.83;5.70;;;12.50;99.90;;;;;;5031861;28;21190;-35
2022/06/21 05:00:11;;;;;;;8.97;5.63;;;12.70;99.90;;;;;;5032222;28;20445;-35
2022/06/21 05:02:41;;;;;;;6.20;5.70;;;12.80;99.90;;;;;;5032277;28;20202;-36
2022/06/21 05:05:26;;;;;;;7.80;4.77;;;12.90;99.90;;;;;;5032249;28;21251;-38
2022/06/21 05:08:09;;;;;;;6.20;5.03;;;13.10;99.90;;;;;;5031650;28;20413;-38
2022/06/21 05:10:44;;;;;;;7.37;5.70;;;13.30;99.90;;;;;;5032248;28;20493;-38
2022/06/21 05:13:33;;;;;;;7.90;5.13;;;13.50;99.90;;;;;;5031822;28;20523;-38
2022/06/21 05:16:03;;;;;;;10.13;4.70;;;13.70;99.90;;;;;;5032283;28;20425;-38
2022/06/21 05:19:06;;;;;;;5.80;4.87;;;13.90;99.90;;;;;;5023850;28;21004;-38
2022/06/21 05:21:43;;;;;;;10.33;4.50;;;14.10;99.90;;;;;;5026122;28;20437;-38
2022/06/21 05:24:10;;;;;;;5.07;4.67;;;14.20;99.90;;;;;;5031135;28;20468;-38
2022/06/21 05:26:59;;;;;;;5.70;4.57;;;14.40;99.90;;;;;;5031582;28;20429;-38
2022/06/21 05:30:01;;;;;;;7.47;4.33;;;14.50;99.90;;;;;;5031855;28;20466;-38
2022/06/21 05:32:31;;;;;;;6.27;4.90;;;14.60;99.90;;;;;;5026523;28;20443;-38
2022/06/21 05:35:01;;;;;;;6.00;4.20;;;14.80;99.90;;;;;;5031229;28;21121;-38
2022/06/21 05:37:31;;;;;;;6.80;4.23;;;15.00;99.90;;;;;;5029857;28;20952;-38
2022/06/21 05:40:03;;;;;;;5.87;4.20;;;15.10;99.90;;;;;;5031860;28;20433;-38
2022/06/21 05:42:29;;;;;;;6.70;4.00;;;15.20;99.90;;;;;;5031262;28;21062;-36
2022/06/21 05:44:59;;;;;;;8.83;4.47;;;15.40;99.90;;;;;;5031580;28;20417;-36
2022/06/21 05:47:34;;;;;;;6.03;3.80;;;15.60;99.90;;;;;;5030206;28;20425;-35
2022/06/21 05:50:03;;;;;;;4.23;3.17;;;15.70;99.90;;;;;;5031662;28;20439;-35
2022/06/21 05:52:32;;;;;;;5.40;3.67;;;15.90;99.90;;;;;;5028013;28;20441;-35
2022/06/21 05:55:07;;;;;;;5.00;3.53;;;16.00;99.90;;;;;;5030935;28;20433;-36
2022/06/21 05:57:44;;;;;;;5.33;3.20;;;16.20;99.90;;;;;;5030578;28;20431;-35
2022/06/21 06:00:26;;;;;;;4.13;3.20;;;16.30;99.90;;;;;;5031080;28;20449;-36
2022/06/21 06:02:56;;;;;;;5.50;3.23;;;16.50;99.90;;;;;;5031215;28;20502;-35
2022/06/21 06:05:31;;;;;;;3.23;2.70;;;16.60;99.90;;;;;;5030443;28;20416;-35
2022/06/21 06:08:32;;;;;;;5.20;2.50;;;16.70;99.90;;;;;;5030335;28;20425;-36
2022/06/21 06:11:01;;;;;;;3.10;2.27;;;16.70;99.90;;;;;;5021709;28;20421;-36
2022/06/21 06:13:37;;;;;;;3.73;2.50;;;16.80;99.90;;;;;;5030665;28;20465;-35
2022/06/21 06:16:10;;;;;;;6.00;2.17;;;16.90;99.90;;;;;;5030751;28;20899;-36
2022/06/21 06:18:42;;;;;;;3.10;2.30;;;17.00;99.90;;;;;;5030459;28;20516;-35
2022/06/21 06:21:22;;;;;;;4.80;2.77;;;17.00;99.90;;;;;;5030966;28;20425;-35
2022/06/21 06:24:11;;;;;;;7.10;2.63;;;17.10;99.90;;;;;;5030941;28;20465;-35
2022/06/21 06:26:40;;;;;;;4.20;2.70;;;17.00;99.90;;;;;;5030310;28;20417;-35
2022/06/21 06:29:31;;;;;;;6.73;2.90;;;17.10;99.90;;;;;;5030537;28;20533;-35
2022/06/21 06:32:20;;;;;;;8.00;4.00;;;17.20;99.90;;;;;;5030627;28;20436;-36
2022/06/21 06:34:50;;;;;;;4.57;2.60;;;17.40;99.90;;;;;;5035650;28;20425;-36
2022/06/21 06:37:30;;;;;;;6.77;3.00;;;17.60;99.90;;;;;;5026376;28;20500;-36
2022/06/21 06:39:56;;;;;;;4.90;3.37;;;17.60;99.90;;;;;;5025923;28;20429;-35
2022/06/21 06:42:26;;;;;;;4.63;2.87;;;17.50;99.90;;;;;;5029926;28;20464;-36
2022/06/21 06:45:20;;;;;;;6.23;4.07;;;17.40;99.90;;;;;;5024361;28;20424;-36
2022/06/21 06:47:50;;;;;;;3.03;2.70;;;17.40;99.90;;;;;;5028947;28;20907;-36
2022/06/21 06:50:39;;;;;;;6.20;3.03;;;17.40;99.90;;;;;;5040567;28;20985;-35
2022/06/21 06:53:39;;;;;;;3.00;2.70;;;17.50;99.90;;;;;;5022673;28;20437;-38
2022/06/21 06:56:11;;;;;;;3.60;3.00;;;17.50;99.90;;;;;;5023335;28;20488;-38
2022/06/21 06:58:45;;;;;;;3.40;2.50;;;17.70;99.90;;;;;;5028514;28;20424;-38
2022/06/21 07:01:13;;;;;;;4.63;2.67;;;17.90;99.90;;;;;;5029291;28;20602;-38
2022/06/21 07:03:50;;;;;;;6.30;2.90;;;18.00;99.90;;;;;;5029100;28;20449;-35
2022/06/21 07:06:38;;;;;;;5.57;2.80;;;18.00;99.90;;;;;;5030197;28;20851;-35
2022/06/21 07:09:19;;;;;;;3.07;2.80;;;18.10;99.90;;;;;;5012481;28;20417;-35
2022/06/21 07:11:58;;;;;;;4.00;2.67;;;18.30;99.90;;;;;;5030050;28;20421;-36
2022/06/21 07:14:26;;;;;;;3.73;2.50;;;18.20;99.90;;;;;;5028643;28;20786;-35
2022/06/21 07:17:15;;;;;;;5.50;2.30;;;18.20;99.90;;;;;;5029382;28;21003;-35
2022/06/21 07:19:41;;;;;;;2.27;2.00;;;18.20;99.90;;;;;;5029937;28;20781;-38
2022/06/21 07:22:17;;;;;;;3.17;2.50;;;18.00;99.90;;;;;;5029913;28;20435;-38
2022/06/21 07:24:51;;;;;;;3.20;2.90;;;18.00;99.90;;;;;;5029684;28;20190;-38
2022/06/21 07:27:19;;;;;;;5.20;3.10;;;18.10;99.90;;;;;;5029315;28;20753;-36
2022/06/21 07:30:00;;;;;;;6.30;2.90;;;18.10;99.90;;;;;;5029692;28;20429;-35
2022/06/21 07:32:36;;;;;;;5.47;2.97;;;18.20;99.90;;;;;;5029777;28;20798;-35
2022/06/21 07:35:09;;;;;;;5.40;2.70;;;18.20;99.90;;;;;;5029590;28;20425;-36
2022/06/21 07:37:46;;;;;;;7.83;2.77;;;18.30;99.90;;;;;;5027473;28;20417;-35
2022/06/21 07:40:22;;;;;;;4.00;2.33;;;18.30;99.90;;;;;;5028359;28;20999;-35
2022/06/21 07:43:00;;;;;;;3.00;2.27;;;18.30;99.90;;;;;;5029767;28;20894;-36
2022/06/21 07:45:37;;;;;;;5.97;2.53;;;18.40;99.90;;;;;;5029346;28;20973;-35
2022/06/21 07:48:17;;;;;;;4.90;2.23;;;18.50;99.90;;;;;;5023679;28;20453;-36
2022/06/21 07:50:51;;;;;;;5.10;2.93;;;18.60;99.90;;;;;;5046962;28;20480;-36
2022/06/21 07:53:28;;;;;;;3.67;2.57;;;18.70;99.50;;;;;;5033587;28;20512;-35
2022/06/21 07:56:01;;;;;;;2.30;2.10;;;18.80;99.10;;;;;;5033317;28;20421;-35
2022/06/21 07:58:42;;;;;;;4.37;2.40;;;19.00;99.00;;;;;;5031559;28;20435;-35
2022/06/21 08:07:10;;;;;;;2.70;2.27;;;18.70;99.80;;;;;;5032894;28;20524;-35
2022/06/21 08:09:47;;;;;;;3.90;2.50;;;18.90;99.70;;;;;;5033345;28;20436;-36
2022/06/21 08:12:14;;;;;;;2.97;2.47;;;19.00;99.40;;;;;;5033415;28;20478;-36
2022/06/21 08:14:40;;;;;;;6.37;3.20;;;19.00;99.10;;;;;;5033058;28;20490;-35
2022/06/21 08:17:15;;;;;;;4.87;3.37;;;19.00;99.30;;;;;;5031485;28;20433;-35
2022/06/21 08:19:55;;;;;;;3.90;3.10;;;18.70;99.50;;;;;;5033080;28;21095;-36
2022/06/21 08:22:36;;;;;;;4.10;2.87;;;18.50;99.90;;;;;;5032914;28;20959;-36
2022/06/21 08:25:15;;;;;;;3.43;2.10;;;18.60;99.70;;;;;;5032925;28;20429;-36
2022/06/21 08:28:19;;;;;;;3.30;2.80;;;18.70;98.30;;;;;;5032134;28;20428;-35
2022/06/21 08:30:51;;;;;;;4.90;2.87;;;18.80;99.20;;;;;;5022438;28;20923;-36
2022/06/21 08:33:20;;;;;;;4.47;2.73;;;19.00;99.20;;;;;;5032735;28;20436;-36
2022/06/21 08:35:56;;;;;;;6.50;2.70;;;19.10;99.90;;;;;;5032874;28;20436;-36
2022/06/21 08:38:31;;;;;;;3.57;3.10;;;19.30;99.30;;;;;;5030598;28;20463;-36
2022/06/21 08:40:59;;;;;;;3.53;2.73;;;19.30;99.20;;;;;;5032820;28;20424;-36
2022/06/21 08:43:59;;;;;;;4.97;2.50;;;19.40;98.70;;;;;;5031288;28;20461;-36
2022/06/21 08:47:01;;;;;;;3.60;2.60;;;19.30;98.30;;;;;;5031293;28;20421;-35
2022/06/21 08:49:38;;;;;;;3.33;2.27;;;19.40;99.10;;;;;;5031023;28;20451;-35
2022/06/21 08:52:45;;;;;;;3.60;2.13;;;19.60;98.00;;;;;;5034425;28;20486;-36
2022/06/21 08:55:39;;;;;;;7.63;3.07;;;19.60;97.10;;;;;;5032408;28;20449;-35
2022/06/21 08:58:11;;;;;;;5.77;3.53;;;19.70;97.20;;;;;;5030497;28;20843;-36
2022/06/21 09:00:40;;;;;;;3.67;3.30;;;19.80;96.40;;;;;;5032159;28;20449;-36
2022/06/21 09:03:20;;;;;;;3.23;2.40;;;19.90;96.20;;;;;;5032240;28;20468;-36
2022/06/21 09:05:58;;;;;;;4.60;3.33;;;20.00;96.00;;;;;;5032536;28;20467;-36
2022/06/21 09:08:57;;;;;;;5.23;3.00;;;20.00;98.00;;;;;;5031619;28;21274;-36
2022/06/21 09:11:28;;;;;;;3.90;3.17;;;20.00;96.70;;;;;;5031981;28;20425;-36
2022/06/21 09:14:19;;;;;;;4.27;2.47;;;20.20;96.50;;;;;;5032343;28;20805;-36
2022/06/21 09:16:57;;;;;;;5.80;3.07;;;20.30;96.00;;;;;;5031546;28;21115;-36
2022/06/21 09:20:01;;;;;;;4.20;2.50;;;20.40;95.80;;;;;;5032049;28;20792;-36
2022/06/21 09:22:27;;;;;;;2.77;2.50;;;20.50;95.60;;;;;;4989573;28;20509;-36
2022/06/21 09:25:17;;;;;;;4.03;2.37;;;20.60;97.00;;;;;;4990148;28;20459;-36
2022/06/21 09:27:51;;;;;;;3.47;2.60;;;20.60;96.20;;;;;;5006451;28;20248;-36
2022/06/21 09:30:29;;;;;;;4.40;2.60;;;20.60;95.40;;;;;;5032085;28;20825;-36
2022/06/21 09:33:02;;;;;;;4.73;2.70;;;20.50;95.40;;;;;;5031761;28;20436;-36
2022/06/21 09:35:52;;;;;;;2.83;2.10;;;20.20;97.00;;;;;;5031779;28;20429;-36
2022/06/21 09:38:53;;;;;;;5.17;2.40;;;20.00;97.40;;;;;;5029579;28;20428;-36
2022/06/21 09:41:44;;;;;;;2.40;2.20;;;20.00;97.50;;;;;;5024122;28;20433;-36
2022/06/21 09:44:48;;;;;;;3.93;2.80;;;20.10;96.70;;;;;;5031401;28;20819;-36
2022/06/21 09:47:50;;;;;;;2.43;2.10;;;20.20;96.70;;;;;;5030793;28;20429;-36
2022/06/21 09:50:46;;;;;;;3.83;2.63;;;20.30;97.50;;;;;;5030305;28;21069;-36
2022/06/21 09:53:43;;;;;;;3.70;2.40;;;20.30;97.40;;;;;;5031142;28;20441;-36
2022/06/21 09:56:19;;;;;;;5.10;2.70;;;20.30;96.90;;;;;;5031440;28;20433;-36
2022/06/21 09:59:01;;;;;;;2.60;2.40;;;20.40;96.40;;;;;;5030391;28;20932;-36
2022/06/21 10:01:40;;;;;;;4.00;2.80;;;20.40;96.60;;;;;;5031228;28;20524;-36
2022/06/21 10:04:23;;;;;;;2.67;2.30;;;20.50;97.50;;;;;;5021223;28;20852;-36
2022/06/21 10:07:11;;;;;;;2.90;2.30;;;20.50;95.90;;;;;;5030568;28;20428;-36
2022/06/21 10:09:58;;;;;;;2.60;2.20;;;20.40;95.80;;;;;;5030760;28;20798;-36
2022/06/21 10:12:48;;;;;;;2.57;2.13;;;20.40;96.80;;;;;;5031174;28;20431;-36
2022/06/21 10:15:35;;;;;;;2.93;2.63;;;20.20;97.10;;;;;;5030877;28;20425;-36
2022/06/21 10:18:26;;;;;;;6.67;2.60;;;20.30;97.80;;;;;;5028879;28;20933;-36
2022/06/21 10:21:33;;;;;;;3.83;2.83;;;20.40;97.40;;;;;;5030653;28;20413;-37
2022/06/21 10:24:14;;;;;;;3.07;2.50;;;20.40;96.80;;;;;;5002404;28;20821;-36
2022/06/21 10:26:46;;;;;;;3.30;2.57;;;20.50;98.10;;;;;;5018931;28;20424;-36
2022/06/21 10:29:46;;;;;;;4.23;2.40;;;20.70;96.80;;;;;;5030768;28;20461;-36
2022/06/21 10:32:50;;;;;;;4.27;2.30;;;20.80;96.80;;;;;;5030515;28;20444;-36
2022/06/21 10:35:44;;;;;;;4.07;2.20;;;21.00;96.60;;;;;;5030649;28;20435;-36
2022/06/21 10:38:18;;;;;;;2.27;1.70;;;21.10;95.60;;;;;;5028495;28;20460;-37
2022/06/21 10:41:21;;;;;;;6.70;2.10;;;21.20;96.20;;;;;;5030435;28;20919;-36
2022/06/21 10:43:54;;;;;;;3.27;1.80;;;21.30;95.80;;;;;;5030494;28;20460;-36
2022/06/21 10:46:33;;;;;;;4.90;2.50;;;21.30;94.70;;;;;;5030488;28;20417;-36
2022/06/21 10:49:48;;;;;;;3.23;2.50;;;21.20;94.40;;;;;;5035215;28;20956;-36
2022/06/21 10:52:19;;;;;;;3.37;2.03;;;21.10;95.00;;;;;;5030693;28;20432;-36
2022/06/21 10:55:00;;;;;;;3.47;2.37;;;21.20;93.30;;;;;;5030404;28;20791;-36
2022/06/21 10:58:00;;;;;;;6.80;2.03;;;21.30;94.00;;;;;;5028268;28;21100;-36
2022/06/21 11:03:55;;;;;;;3.10;2.60;;;21.40;93.50;;;;;;5029823;28;20495;-36
2022/06/21 11:06:50;;;;;;;4.10;2.30;;;21.40;93.70;;;;;;5030200;28;20425;-36
2022/06/21 11:09:25;;;;;;;5.73;2.50;;;21.50;94.50;;;;;;5030164;28;20420;-36
2022/06/21 11:15:12;;;;;;;5.00;2.10;;;21.30;92.40;;;;;;5030184;28;21098;-36
2022/06/21 11:17:57;;;;;;;4.60;2.33;;;21.20;94.10;;;;;;5029148;28;20511;-36
2022/06/21 11:20:40;;;;;;;2.40;2.20;;;21.20;93.70;;;;;;5029872;28;20429;-37
2022/06/21 11:23:28;;;;;;;3.83;2.40;;;21.20;94.00;;;;;;5028519;28;20471;-36
2022/06/21 11:26:11;;;;;;;5.67;2.50;;;21.10;93.40;;;;;;5030066;28;20420;-36
2022/06/21 11:28:40;;;;;;;2.50;2.10;;;21.00;93.80;;;;;;5027792;28;20966;-36
2022/06/21 11:31:13;;;;;;;2.90;2.43;;;20.90;93.50;;;;;;5028551;28;21062;-36
2022/06/21 11:34:17;;;;;;;5.97;3.40;;;20.80;94.10;;;;;;5029614;28;20548;-36
2022/06/21 11:37:30;;;;;;;3.83;2.30;;;20.80;94.10;;;;;;5016539;28;20440;-36
2022/06/21 11:40:01;;;;;;;4.00;2.57;;;20.80;94.30;;;;;;4987525;28;20430;-36
2022/06/21 11:42:42;;;;;;;3.00;2.43;;;20.70;94.50;;;;;;4987426;28;20458;-36
2022/06/21 11:45:31;;;;;;;3.43;2.40;;;20.70;94.00;;;;;;5002359;28;20785;-36
2022/06/21 11:48:07;;;;;;;2.70;2.30;;;20.70;94.20;;;;;;5028986;28;20429;-36
2022/06/21 11:50:48;;;;;;;2.70;2.47;;;20.70;94.50;;;;;;5042241;28;20480;-36
2022/06/21 11:53:31;;;;;;;4.30;2.20;;;20.80;94.90;;;;;;5029317;28;20772;-36
2022/06/21 11:56:26;;;;;;;4.20;2.70;;;20.80;94.70;;;;;;5029786;28;20468;-36
2022/06/21 11:59:02;;;;;;;3.57;2.00;;;20.80;94.60;;;;;;5028871;28;20460;-36
2022/06/21 12:01:51;;;;;;;3.33;2.07;;;20.90;95.60;;;;;;5029145;28;20482;-36
2022/06/21 12:04:29;;;;;;;3.70;2.60;;;21.00;94.50;;;;;;5029450;28;20499;-36
2022/06/21 12:07:19;;;;;;;4.30;2.43;;;20.90;94.40;;;;;;5027793;28;20822;-36
2022/06/21 12:10:04;;;;;;;5.40;2.90;;;20.90;94.10;;;;;;5029415;28;20442;-36
2022/06/21 12:13:00;;;;;;;3.80;2.40;;;20.80;92.50;;;;;;5029319;28;20435;-36
2022/06/21 12:15:38;;;;;;;4.27;2.77;;;20.70;93.60;;;;;;5029513;28;20460;-36
2022/06/21 12:18:10;;;;;;;3.80;3.07;;;20.80;93.90;;;;;;5028706;28;20879;-36
2022/06/21 12:20:44;;;;;;;5.90;3.10;;;20.70;95.50;;;;;;5029324;28;20928;-36
2022/06/21 12:23:18;;;;;;;4.23;3.33;;;20.70;95.50;;;;;;5029175;28;20479;-36
2022/06/21 12:25:45;;;;;;;3.97;3.30;;;20.60;95.20;;;;;;5029493;28;20460;-36
2022/06/21 12:28:18;;;;;;;3.33;2.47;;;20.60;95.20;;;;;;5028615;28;20482;-36
2022/06/21 12:30:45;;;;;;;3.47;2.90;;;20.60;94.20;;;;;;5029135;28;20457;-36
2022/06/21 12:33:14;;;;;;;4.23;3.07;;;20.60;95.50;;;;;;5031298;28;21187;-36
2022/06/21 12:35:47;;;;;;;4.83;2.93;;;20.60;95.70;;;;;;5032907;28;20440;-36
2022/06/21 12:38:18;;;;;;;7.63;2.73;;;20.50;96.10;;;;;;5030671;28;20432;-36
2022/06/21 12:41:15;;;;;;;2.90;2.40;;;20.70;96.10;;;;;;5032790;28;20512;-36
2022/06/21 12:43:46;;;;;;;4.33;2.30;;;21.00;97.00;;;;;;5032533;28;20603;-36
2022/06/21 12:46:30;;;;;;;3.97;2.43;;;21.30;95.40;;;;;;5032818;28;20421;-36
2022/06/21 12:49:19;;;;;;;6.83;2.73;;;21.50;96.70;;;;;;5036324;28;20428;-36
2022/06/21 12:52:00;;;;;;;4.00;2.80;;;21.90;97.50;;;;;;5037134;28;21341;-36
2022/06/21 12:54:54;;;;;;;3.57;2.57;;;22.10;96.10;;;;;;5031101;28;20440;-36
2022/06/21 12:57:44;;;;;;;6.13;2.90;;;22.20;96.20;;;;;;5031872;28;20427;-36
2022/06/21 13:00:25;;;;;;;3.70;2.80;;;22.30;95.90;;;;;;5032134;28;20445;-37
2022/06/21 13:03:15;;;;;;;4.93;2.40;;;22.20;95.30;;;;;;5032200;28;20453;-36
2022/06/21 13:06:36;;;;;;;5.00;3.10;;;22.30;96.30;;;;;;5032395;28;20516;-36
2022/06/21 13:09:34;;;;;;;6.27;2.67;;;22.30;97.20;;;;;;4954639;28;20428;-36
2022/06/21 13:12:30;;;;;;;4.80;2.70;;;22.30;94.90;;;;;;5032329;28;20443;-37
2022/06/21 13:15:18;;;;;;;3.23;2.17;;;22.30;95.00;;;;;;5032157;28;20425;-36
2022/06/21 13:18:04;;;;;;;3.17;2.77;;;22.30;94.90;;;;;;5031487;28;20512;-36
2022/06/21 13:21:09;;;;;;;5.83;3.00;;;22.20;94.40;;;;;;5031969;28;20416;-36
2022/06/21 13:23:44;;;;;;;3.27;2.60;;;22.00;94.30;;;;;;5019788;28;20554;-36
2022/06/21 13:26:20;;;;;;;5.40;2.40;;;22.10;95.20;;;;;;5031866;28;20435;-36
2022/06/21 13:29:13;;;;;;;2.80;2.30;;;22.30;96.10;;;;;;5031354;28;20939;-36
2022/06/21 13:31:55;;;;;;;3.73;2.80;;;22.40;95.30;;;;;;5031774;28;20413;-36
2022/06/21 13:34:32;;;;;;;4.97;2.60;;;22.60;94.30;;;;;;5031709;28;20428;-36
2022/06/21 13:37:07;;;;;;;3.23;2.83;;;22.70;96.10;;;;;;5030943;28;20444;-36
2022/06/21 13:39:38;;;;;;;4.20;2.70;;;23.00;96.90;;;;;;5030096;28;20499;-36
2022/06/21 13:42:38;;;;;;;3.20;2.47;;;23.00;95.50;;;;;;5031305;28;20417;-37
2022/06/21 13:45:23;;;;;;;4.57;2.57;;;22.70;94.40;;;;;;5030990;28;20508;-36
2022/06/21 13:47:59;;;;;;;3.80;2.50;;;22.60;95.30;;;;;;5030679;28;20405;-36
2022/06/21 13:50:48;;;;;;;4.37;2.60;;;22.50;95.50;;;;;;5043799;28;20421;-36
2022/06/21 13:53:51;;;;;;;5.40;2.83;;;22.40;95.20;;;;;;5031274;28;20425;-36
2022/06/21 13:56:26;;;;;;;3.57;2.10;;;22.50;95.80;;;;;;5031325;28;20424;-36
2022/06/21 13:59:02;;;;;;;5.23;2.50;;;22.70;96.00;;;;;;5030790;28;20420;-36
2022/06/21 14:01:50;;;;;;;4.60;2.93;;;22.80;94.30;;;;;;5031091;28;20531;-36
2022/06/21 14:04:50;;;;;;;3.30;2.20;;;23.00;93.20;;;;;;5031111;28;21082;-36